Thunder radar more information blitzortung!


Radar de pluja more information rain snow radar


Visita la nostra xarxa de llocs de meteo:

Template documentation
and downloads

And another site



No particular awareness of the weather is required.    There are no Weather-warnings

Pagina Historial Weather Underground text

Diari Resum January 22, 2016 Unitats:  Mètric    Imperial   Tant
« Previous Dia
SegĂźent Dia »
Diari Setmana Mensual Anual Personalitzada
  Maxima: Minima: Media:
Temperatura: -17.8 °C -15.3 °C -11.3 °C
Punt de rosada: -17.8 °C -17.6 °C -14.2 °C
Humitat: Humidity % 61 % 70 %
Wind Speed: 0 km/h 0 km/h 5.1 km/h
RĂ fegues de vent: 0 km/h - -
Vent:- - South
Pression baro: 0 hPa 34740.4 hPa -
Precipitacions: 0 mm    
Historical Graphs
 
 
Dades de taula per January 22, 2016
Temps Temperatura Punt de rosada Pression baro Vent Wind Speed RĂ fegues de vent Humitat Rainfall Rate (Hourly)
-17.8 °C -17.8 °C 0 hPa Calm     Humidity % 0 mm
00:03 -15.3 °C -17.6 °C 34740.4 hPa WSW 3.1 km/h   74 % 0 mm
11:48 -13.4 °C -15.9 °C 34875.8 hPa Calm   5.1 km/h 73 % 0 mm
11:53 -13 °C -15.7 °C 34875.8 hPa NNE 6 km/h 6 km/h 72 % 0 mm
11:58 -12.9 °C -15.7 °C 34875.8 hPa ENE 6.3 km/h 6.3 km/h 71 % 0 mm
12:03 -12.7 °C -15.5 °C 34875.8 hPa NE 6.8 km/h 6.8 km/h 71 % 0 mm
12:08 -12.7 °C -15.7 °C 34875.8 hPa ENE 9 km/h 9 km/h 69 % 0 mm
12:13 -12.4 °C -15.4 °C 34875.8 hPa ESE 9.8 km/h 9.8 km/h 69 % 0 mm
12:18 -12.4 °C -15.4 °C 34875.8 hPa ESE 6.8 km/h 6.8 km/h 69 % 0 mm
12:28 -12.2 °C -15.4 °C 34841.9 hPa ESE 9 km/h 9 km/h 68 % 0 mm
12:33 -12.2 °C -15.4 °C 34841.9 hPa ENE 6 km/h 6 km/h 67 % 0 mm
12:38 -12.2 °C -15.4 °C 34875.8 hPa North 9 km/h 9 km/h 67 % 0 mm
12:43 -12.1 °C -15.4 °C 34875.8 hPa NE 6 km/h 6 km/h 66 % 0 mm
12:48 -11.9 °C -15.3 °C 34875.8 hPa NNE 6 km/h 6 km/h 66 % 0 mm
12:53 -11.8 °C -15.2 °C 34875.8 hPa NNE 5.1 km/h 5.1 km/h 66 % 0 mm
12:58 -11.8 °C -15.3 °C 34875.8 hPa ENE 9 km/h 9 km/h 65 % 0 mm
13:03 -11.7 °C -15.2 °C 34875.8 hPa ENE 6 km/h 6 km/h 65 % 0 mm
13:08 -11.6 °C -15.1 °C 34875.8 hPa ENE 6 km/h 6 km/h 65 % 0 mm
13:13 -11.3 °C -14.9 °C 34875.8 hPa NNE 6 km/h 6 km/h 65 % 0 mm
13:18 -11.3 °C -14.8 °C 34875.8 hPa NNE 11.9 km/h 11.9 km/h 65 % 0 mm
13:23 -11.2 °C -14.8 °C 34875.8 hPa NE 6 km/h 6 km/h 64 % 0 mm
13:28 -11 °C -14.7 °C 34875.8 hPa ENE 8.5 km/h 8.5 km/h 64 % 0 mm
13:33 -10.9 °C -14.6 °C 34875.8 hPa NNE 6 km/h 6 km/h 64 % 0 mm
13:38 -10.8 °C -14.5 °C 34841.9 hPa NNW 3.1 km/h 3.1 km/h 64 % 0 mm
13:43 -10.8 °C -14.5 °C 34841.9 hPa NW 6 km/h 6 km/h 64 % 0 mm
13:53 -10.5 °C -14.2 °C 34808.1 hPa South 3.1 km/h   64 % 0 mm
13:58 -10.3 °C -13.7 °C 34808.1 hPa SW 9 km/h 9 km/h 66 % 0 mm
14:03 -10.2 °C -13.7 °C 34808.1 hPa WSW 11.9 km/h 11.9 km/h 66 % 0 mm
14:08 -10.1 °C -13.6 °C 34808.1 hPa SW 15 km/h 15 km/h 66 % 0 mm
14:13 -10.1 °C -13.7 °C 34808.1 hPa SW 9 km/h 9 km/h 65 % 0 mm
14:18 -10.1 °C -13.7 °C 34808.1 hPa SW 9.8 km/h 9.8 km/h 65 % 0 mm
14:28 -10.3 °C -14.2 °C 34841.9 hPa ESE 9 km/h 9 km/h 63 % 0 mm
14:33 -10.3 °C -14.2 °C 34841.9 hPa East 9 km/h 9 km/h 63 % 0 mm
14:38 -10.3 °C -14.2 °C 34808.1 hPa East 6 km/h 6.3 km/h 63 % 0 mm
14:43 -10.3 °C -14.1 °C 34808.1 hPa ESE 9.3 km/h 9.3 km/h 63 % 0 mm
14:48 -10.2 °C -13.9 °C 34808.1 hPa ESE 9 km/h 9 km/h 64 % 0 mm
14:53 -10.2 °C -14 °C 34808.1 hPa East 9 km/h 9 km/h 63 % 0 mm
14:58 -10.2 °C -14.1 °C 34808.1 hPa NE 9 km/h 9 km/h 62 % 0 mm
15:03 -10.2 °C -14.1 °C 34808.1 hPa ENE 6 km/h 6 km/h 62 % 0 mm
15:08 -10.1 °C -14.1 °C 34841.9 hPa Calm     62 % 0 mm
15:13 -10.1 °C -14.2 °C 34841.9 hPa ENE 6 km/h 6 km/h 61 % 0 mm
15:18 -10.2 °C -14.3 °C 34841.9 hPa East 9 km/h 9 km/h 61 % 0 mm
15:23 -10.3 °C -14.4 °C 34841.9 hPa NE 11.9 km/h 11.9 km/h 61 % 0 mm
15:28 -10.3 °C -14.4 °C 34841.9 hPa NNE 11.9 km/h 11.9 km/h 61 % 0 mm
15:33 -10.3 °C -14.4 °C 34841.9 hPa NE 9 km/h 9 km/h 61 % 0 mm
15:38 -10.3 °C -14.4 °C 34841.9 hPa NE 3.7 km/h   61 % 0 mm
15:53 -10.2 °C -14.2 °C 34841.9 hPa NE 5.1 km/h 5.1 km/h 62 % 0 mm
15:58 -10.2 °C -14.2 °C 34841.9 hPa ESE 3.1 km/h   62 % 0 mm
16:03 -10.2 °C -14.2 °C 34841.9 hPa Calm     62 % 0 mm
16:08 -10.2 °C -14.2 °C 34875.8 hPa ENE 6 km/h 6 km/h 62 % 0 mm
16:13 -10.2 °C -14.1 °C 34875.8 hPa WSW 6 km/h 7.6 km/h 63 % 0 mm
16:18 -10.2 °C -13.9 °C 34875.8 hPa West 6.3 km/h 6.8 km/h 64 % 0 mm
16:23 -10.2 °C -13.8 °C 34875.8 hPa SSW 11.9 km/h 11.9 km/h 65 % 0 mm
16:28 -10.2 °C -13.7 °C 34875.8 hPa WSW 9 km/h 9 km/h 66 % 0 mm
16:33 -10.3 °C -13.6 °C 34875.8 hPa West 11.9 km/h 11.9 km/h 67 % 0 mm
16:38 -10.3 °C -13.6 °C 34875.8 hPa WSW 6.8 km/h 6.8 km/h 67 % 0 mm
16:43 -10.3 °C -13.6 °C 34875.8 hPa SW 9 km/h 9 km/h 67 % 0 mm
16:48 -10.3 °C -13.7 °C 34875.8 hPa WSW 11.1 km/h 11.1 km/h 67 % 0 mm
16:58 -10.4 °C -13.7 °C 34875.8 hPa WSW 11.9 km/h 11.9 km/h 68 % 0 mm
17:03 -10.4 °C -13.6 °C 34875.8 hPa WSW 11.9 km/h 11.9 km/h 69 % 0 mm
17:08 -10.5 °C -13.6 °C 34899.5 hPa WSW 6 km/h 6 km/h 69 % 0 mm
17:13 -10.5 °C -13.6 °C 34899.5 hPa SW 3.1 km/h 3.1 km/h 69 % 0 mm
17:18 -10.5 °C -13.6 °C 34899.5 hPa WSW 3.1 km/h 3.7 km/h 69 % 0 mm
17:23 -10.6 °C -13.7 °C 34875.8 hPa WSW 6.3 km/h 6.3 km/h 69 % 0 mm
17:28 -10.6 °C -13.5 °C 34875.8 hPa WSW 6 km/h 6 km/h 70 % 0 mm
17:33 -10.6 °C -13.6 °C 34875.8 hPa SW 15 km/h 15 km/h 70 % 0 mm
17:43 -10.7 °C -13.5 °C 34875.8 hPa WSW 6.3 km/h 6.3 km/h 71 % 0 mm
17:48 -10.7 °C -13.5 °C 34875.8 hPa SW 6 km/h 6 km/h 71 % 0 mm
17:53 -10.7 °C -13.4 °C 34875.8 hPa SSW 6 km/h 6 km/h 72 % 0 mm
17:58 -10.7 °C -13.4 °C 34875.8 hPa SW 6 km/h 6 km/h 72 % 0 mm
18:03 -10.7 °C -13.4 °C 34875.8 hPa SW 3.1 km/h 3.7 km/h 72 % 0 mm
18:08 -10.8 °C -13.5 °C 34875.8 hPa WSW 6 km/h 6 km/h 72 % 0 mm
18:13 -10.8 °C -13.4 °C 34875.8 hPa SW 5.1 km/h 5.1 km/h 73 % 0 mm
18:18 -10.8 °C -13.4 °C 34875.8 hPa WSW 6 km/h 6 km/h 73 % 0 mm
18:23 -10.9 °C -13.5 °C 34899.5 hPa SW 6 km/h 6 km/h 73 % 0 mm
18:28 -10.9 °C -13.5 °C 34899.5 hPa WSW 6 km/h 6 km/h 73 % 0 mm
18:33 -10.9 °C -13.4 °C 34899.5 hPa WSW 6 km/h 6 km/h 74 % 0 mm
18:39 -10.9 °C -13.4 °C 34899.5 hPa SW 4.2 km/h 4.2 km/h 74 % 0 mm
18:44 -10.9 °C -13.4 °C 34899.5 hPa WSW 6 km/h 6 km/h 74 % 0 mm
18:49 -10.9 °C -13.4 °C 34899.5 hPa SW 6 km/h 6 km/h 74 % 0 mm
18:54 -11 °C -13.5 °C 34899.5 hPa SW 6 km/h 6 km/h 74 % 0 mm
18:59 -11 °C -13.4 °C 34899.5 hPa SW 6 km/h 6 km/h 75 % 0 mm
19:04 -11.1 °C -13.4 °C 34899.5 hPa Calm     75 % 0 mm
19:09 -11.1 °C -13.4 °C 34899.5 hPa Calm     75 % 0 mm
19:14 -11.1 °C -13.4 °C 34899.5 hPa SW 3.1 km/h   76 % 0 mm
19:19 -11.2 °C -13.6 °C 34899.5 hPa Calm     75 % 0 mm
19:24 -11.3 °C -13.6 °C 34899.5 hPa Calm     76 % 0 mm
19:29 -11.3 °C -13.6 °C 34899.5 hPa Calm     76 % 0 mm
19:34 -11.4 °C -13.7 °C 34899.5 hPa Calm     76 % 0 mm
19:39 -11.4 °C -13.7 °C 34946.9 hPa Calm     76 % 0 mm
19:44 -11.5 °C -13.8 °C 34946.9 hPa Calm     76 % 0 mm
19:49 -11.5 °C -13.8 °C 34946.9 hPa Calm     76 % 0 mm
19:54 -11.6 °C -13.8 °C 34946.9 hPa Calm     76 % 0 mm
19:59 -11.5 °C -13.7 °C 34946.9 hPa Calm     77 % 0 mm
20:04 -11.5 °C -13.8 °C 34946.9 hPa SW 6 km/h 6 km/h 76 % 0 mm
20:09 -11.5 °C -13.8 °C 34946.9 hPa Calm     76 % 0 mm
20:10 -11.5 °C -13.8 °C 34946.9 hPa Calm   2.6 km/h 76 % 0 mm
20:11 -11.5 °C -13.7 °C 34946.9 hPa Calm     77 % 0 mm
20:12 -11.5 °C -13.7 °C 34946.9 hPa Calm     77 % 0 mm
20:17 -11.5 °C -13.8 °C 34946.9 hPa SW 3.1 km/h 3.7 km/h 76 % 0 mm
20:30 -11.6 °C -13.9 °C 34899.5 hPa WSW 6 km/h 6 km/h 76 % 0 mm
20:35 -11.6 °C -13.8 °C 34946.9 hPa WSW 6 km/h 6 km/h 76 % 0 mm
20:40 -11.6 °C -13.8 °C 34946.9 hPa SW 6 km/h 6 km/h 77 % 0 mm
20:45 -11.7 °C -13.8 °C 34946.9 hPa Calm     77 % 0 mm
20:50 -11.7 °C -13.8 °C 34946.9 hPa Calm     77 % 0 mm
20:55 -11.7 °C -13.9 °C 34946.9 hPa Calm     77 % 0 mm
21:00 -11.7 °C -13.8 °C 34946.9 hPa Calm     78 % 0 mm
21:05 -11.7 °C -13.8 °C 34899.5 hPa Calm     78 % 0 mm
21:10 -11.7 °C -13.9 °C 34899.5 hPa NNE 3.1 km/h   77 % 0 mm
21:15 -11.8 °C -14.1 °C 34899.5 hPa Calm     76 % 0 mm
21:20 -11.8 °C -14.1 °C 34899.5 hPa NNW 6 km/h 6 km/h 75 % 0 mm
21:25 -11.7 °C -14.2 °C 34899.5 hPa NW 3.1 km/h 3.1 km/h 74 % 0 mm
21:30 -11.8 °C -14.3 °C 34899.5 hPa Calm     73 % 0 mm
21:35 -11.8 °C -14.3 °C 34899.5 hPa WNW 6 km/h 6 km/h 74 % 0 mm
21:40 -11.9 °C -14.3 °C 34899.5 hPa WNW 3.1 km/h   75 % 0 mm
21:45 -11.9 °C -14.3 °C 34899.5 hPa Calm     75 % 0 mm
21:50 -12 °C -14.3 °C 34899.5 hPa NE 6 km/h 6 km/h 75 % 0 mm
21:55 -12.1 °C -14.4 °C 34899.5 hPa NE 3.1 km/h   75 % 0 mm
22:00 -12.1 °C -14.4 °C 34899.5 hPa NE 6 km/h 6 km/h 75 % 0 mm
22:05 -12.1 °C -14.5 °C 34946.9 hPa WSW 6 km/h 6 km/h 75 % 0 mm
22:11 -12.2 °C -14.5 °C 34946.9 hPa WSW 6.3 km/h 6.3 km/h 75 % 0 mm
22:16 -12.2 °C -14.6 °C 34946.9 hPa WSW 6 km/h 6 km/h 75 % 0 mm
22:21 -12.2 °C -14.6 °C 34946.9 hPa WSW 2.3 km/h   75 % 0 mm
22:26 -12.2 °C -14.5 °C 34946.9 hPa WSW 3.1 km/h   76 % 0 mm
22:31 -12.2 °C -14.5 °C 34946.9 hPa WSW 3.7 km/h   76 % 0 mm
22:41 -12.2 °C -14.6 °C 34946.9 hPa Calm     74 % 0 mm
22:46 -12.1 °C -14.7 °C 34946.9 hPa West 3.1 km/h   73 % 0 mm
22:51 -12.2 °C -14.6 °C 34967.2 hPa WSW 5.1 km/h 5.1 km/h 74 % 0 mm
22:56 -12.4 °C -14.8 °C 34967.2 hPa SW 6 km/h 6 km/h 74 % 0 mm
23:01 -12.4 °C -14.8 °C 34967.2 hPa SW 6 km/h 6 km/h 74 % 0 mm
23:06 -12.4 °C -14.8 °C 34967.2 hPa Calm     74 % 0 mm
23:11 -12.4 °C -14.8 °C 34967.2 hPa Calm     74 % 0 mm
23:16 -12.4 °C -14.8 °C 34967.2 hPa Calm     74 % 0 mm
Meteo Sesrovires
Elogis d' Weather Underground - 3.25 mb

Guio original per  Jim McMurry - jmcmurry@mwt.net Adaptat per a la plantilla per  Wim van der Kuil - Leuven-Template.eu

Trobareu la nostra informacio del temps tambe a:

Weather Underground

AWEKAS